Time;durP1;ratioP1;P1;durP2;ratioP2;P2;SDS_P1;SDS_P2;PMS_P1;PMS_P2;Temp;Humidity;BMP_temperature;BMP_pressure;BME280_temperature;BME280_humidity;BME280_pressure;Samples;Min_cycle;Max_cycle;Signal;HPM_P1;HPM_P2
2021/08/20 00:00:11;;;;;;;;;;;29.00;25.60;;;;;;4358596;32;19954;-38
2021/08/20 00:02:37;;;;;;;;;;;29.00;25.60;;;;;;4359256;32;20050;-38
2021/08/20 00:05:04;;;;;;;;;;;29.10;25.70;;;;;;4345000;32;20554;-39
2021/08/20 00:07:30;;;;;;;;;;;29.10;25.70;;;;;;4358469;32;19993;-39
2021/08/20 00:09:59;;;;;;;;;;;29.10;25.80;;;;;;4358382;32;20368;-38
2021/08/20 00:12:26;;;;;;;;;;;29.00;25.80;;;;;;4358820;32;20071;-38
2021/08/20 00:14:55;;;;;;;;;;;29.00;25.90;;;;;;4358814;32;19969;-38
2021/08/20 00:17:22;;;;;;;;;;;28.90;25.80;;;;;;4358727;32;20026;-39
2021/08/20 00:19:49;;;;;;;;;;;28.80;25.80;;;;;;4358925;32;19958;-39
2021/08/20 00:22:15;;;;;;;;;;;28.80;25.80;;;;;;4358489;32;19958;-38
2021/08/20 00:24:41;;;;;;;;;;;28.80;25.80;;;;;;4358417;32;19989;-37
2021/08/20 00:27:07;;;;;;;;;;;28.80;25.90;;;;;;4314017;33;19993;-38
2021/08/20 00:29:33;;;;;;;;;;;28.70;25.90;;;;;;4314297;33;20037;-38
2021/08/20 00:31:59;;;;;;;;;;;28.70;25.90;;;;;;4335007;33;20057;-37
2021/08/20 00:34:25;;;;;;;;;;;28.80;26.00;;;;;;4341199;33;19955;-38
2021/08/20 00:36:52;;;;;;;;;;;28.70;25.90;;;;;;4341140;33;19958;-38
2021/08/20 00:39:18;;;;;;;;;;;28.80;26.00;;;;;;4341047;33;20029;-38
2021/08/20 00:41:44;;;;;;;;;;;28.80;26.00;;;;;;4340777;33;20095;-38
2021/08/20 00:44:10;;;;;;;;;;;28.80;26.00;;;;;;4341416;33;20005;-38
2021/08/20 00:46:37;;;;;;;;;;;28.80;26.30;;;;;;4341315;33;20075;-39
2021/08/20 00:49:04;;;;;;;;;;;28.70;26.00;;;;;;4340928;33;19954;-38
2021/08/20 00:51:33;;;;;;;;;;;28.80;26.10;;;;;;4341111;33;20409;-38
2021/08/20 00:53:59;;;;;;;;;;;28.80;26.10;;;;;;4326285;33;20024;-39
2021/08/20 00:56:25;;;;;;;;;;;28.80;26.10;;;;;;4315739;33;20438;-38
2021/08/20 00:58:51;;;;;;;;;;;28.70;26.10;;;;;;4328964;33;20446;-37
2021/08/20 01:01:18;;;;;;;;;;;28.70;26.20;;;;;;4344461;33;19970;-38
2021/08/20 01:03:44;;;;;;;;;;;28.70;26.20;;;;;;4343775;33;19962;-38
2021/08/20 01:06:10;;;;;;;;;;;28.60;26.30;;;;;;4344217;33;19954;-37
2021/08/20 01:08:37;;;;;;;;;;;28.60;26.30;;;;;;4343789;33;19970;-37
2021/08/20 01:11:05;;;;;;;;;;;28.60;26.40;;;;;;4343955;33;20375;-38
2021/08/20 01:13:36;;;;;;;;;;;28.50;26.40;;;;;;4343581;33;19978;-37
2021/08/20 01:16:03;;;;;;;;;;;28.50;26.40;;;;;;4344095;33;19973;-37
2021/08/20 01:18:29;;;;;;;;;;;28.60;26.40;;;;;;4343669;33;20530;-38
2021/08/20 01:20:56;;;;;;;;;;;28.60;26.40;;;;;;4331735;33;20041;-38
2021/08/20 01:23:23;;;;;;;;;;;28.60;26.40;;;;;;4343819;33;20473;-38
2021/08/20 01:25:49;;;;;;;;;;;28.60;26.40;;;;;;4358095;32;19962;-39
2021/08/20 01:28:15;;;;;;;;;;;28.60;26.40;;;;;;4360885;32;20009;-38
2021/08/20 01:30:41;;;;;;;;;;;28.60;26.60;;;;;;4361145;32;20412;-38
2021/08/20 01:33:08;;;;;;;;;;;28.70;26.60;;;;;;4360568;32;20399;-38
2021/08/20 01:35:34;;;;;;;;;;;28.60;26.50;;;;;;4360996;32;20032;-38
2021/08/20 01:38:00;;;;;;;;;;;28.60;26.60;;;;;;4328758;33;20075;-39
2021/08/20 01:40:27;;;;;;;;;;;28.70;26.70;;;;;;4316500;33;20539;-39
2021/08/20 01:42:53;;;;;;;;;;;28.70;26.70;;;;;;4316473;33;20039;-39
2021/08/20 01:45:19;;;;;;;;;;;28.70;26.80;;;;;;4328885;33;19966;-39
2021/08/20 01:47:45;;;;;;;;;;;28.70;26.80;;;;;;4328774;33;20082;-39
2021/08/20 01:50:12;;;;;;;;;;;28.80;26.80;;;;;;4328605;33;20023;-38
2021/08/20 01:52:38;;;;;;;;;;;28.80;26.80;;;;;;4316538;33;19981;-40
2021/08/20 01:55:06;;;;;;;;;;;28.90;26.80;;;;;;4316224;33;20026;-38
2021/08/20 01:57:33;;;;;;;;;;;28.90;26.70;;;;;;4328669;33;19974;-39
2021/08/20 02:00:00;;;;;;;;;;;29.00;26.70;;;;;;4328825;33;20461;-39
2021/08/20 02:02:26;;;;;;;;;;;29.00;26.60;;;;;;4328038;33;19982;-39
2021/08/20 02:04:52;;;;;;;;;;;29.10;26.70;;;;;;4328546;33;19977;-39
2021/08/20 02:07:18;;;;;;;;;;;29.10;26.60;;;;;;4328526;33;20047;-39
2021/08/20 02:09:47;;;;;;;;;;;29.10;26.50;;;;;;4354410;32;20442;-38
2021/08/20 02:12:14;;;;;;;;;;;29.10;26.50;;;;;;4360545;32;19954;-39
2021/08/20 02:14:40;;;;;;;;;;;29.20;26.60;;;;;;4360665;32;19969;-39
2021/08/20 02:17:06;;;;;;;;;;;29.20;26.50;;;;;;4360388;32;20393;-39
2021/08/20 02:19:33;;;;;;;;;;;29.30;26.60;;;;;;4360189;32;20386;-39
2021/08/20 02:21:59;;;;;;;;;;;29.30;26.50;;;;;;4360618;32;19969;-39
2021/08/20 02:24:26;;;;;;;;;;;29.40;26.50;;;;;;4360217;32;20070;-40
2021/08/20 02:26:52;;;;;;;;;;;29.50;26.50;;;;;;4360285;32;19956;-39
2021/08/20 02:29:18;;;;;;;;;;;29.60;26.50;;;;;;4360053;32;19981;-39
2021/08/20 02:31:44;;;;;;;;;;;29.80;26.60;;;;;;4353676;32;19966;-39
2021/08/20 02:34:10;;;;;;;;;;;29.90;26.60;;;;;;4375348;32;20376;-39
2021/08/20 02:36:36;;;;;;;;;;;30.10;26.60;;;;;;4374882;32;19969;-39
2021/08/20 02:39:03;;;;;;;;;;;30.30;26.60;;;;;;4374974;32;20430;-39
2021/08/20 02:41:29;;;;;;;;;;;30.70;26.50;;;;;;4375112;32;19965;-39
2021/08/20 02:43:55;;;;;;;;;;;30.90;26.40;;;;;;4374825;32;20380;-39
2021/08/20 02:46:22;;;;;;;;;;;31.20;26.90;;;;;;4374831;32;19949;-39
2021/08/20 02:48:48;;;;;;;;;;;31.60;26.30;;;;;;4374707;32;20038;-39
2021/08/20 02:51:15;;;;;;;;;;;31.90;26.20;;;;;;4375148;32;20516;-39
2021/08/20 02:53:42;;;;;;;;;;;32.30;26.10;;;;;;4361037;32;19953;-39
2021/08/20 02:56:08;;;;;;;;;;;32.60;26.10;;;;;;4374943;32;19958;-38
2021/08/20 02:58:35;;;;;;;;;;;32.90;25.90;;;;;;4374593;32;19961;-39
2021/08/20 03:01:01;;;;;;;;;;;33.20;25.90;;;;;;4374677;32;19965;-39
2021/08/20 03:03:27;;;;;;;;;;;33.60;25.90;;;;;;4374851;32;20055;-39
2021/08/20 03:05:53;;;;;;;;;;;33.90;25.80;;;;;;4374597;32;19965;-39
2021/08/20 03:08:19;;;;;;;;;;;34.20;25.70;;;;;;4374765;32;19965;-39
2021/08/20 03:10:46;;;;;;;;;;;34.50;25.60;;;;;;4374740;32;19964;-39
2021/08/20 03:13:12;;;;;;;;;;;34.70;25.50;;;;;;4374726;32;19969;-39
2021/08/20 03:15:38;;;;;;;;;;;34.90;25.60;;;;;;4374840;32;19965;-38
2021/08/20 03:18:04;;;;;;;;;;;35.10;25.40;;;;;;4373735;32;19962;-38
2021/08/20 03:20:31;;;;;;;;;;;35.30;25.40;;;;;;4374124;32;20011;-39
2021/08/20 03:22:57;;;;;;;;;;;35.60;25.30;;;;;;4359955;32;20392;-39
2021/08/20 03:25:23;;;;;;;;;;;35.90;25.10;;;;;;4374522;32;20033;-39
2021/08/20 03:27:52;;;;;;;;;;;36.20;24.70;;;;;;4374164;32;19967;-38
2021/08/20 03:30:18;;;;;;;;;;;36.50;24.50;;;;;;4374435;32;19980;-38
2021/08/20 03:32:44;;;;;;;;;;;36.80;24.10;;;;;;4360452;32;19958;-38
2021/08/20 03:35:13;;;;;;;;;;;37.20;23.60;;;;;;4358950;32;19966;-38
2021/08/20 03:37:42;;;;;;;;;;;37.50;23.60;;;;;;4359230;32;19953;-38
2021/08/20 03:40:09;;;;;;;;;;;38.00;23.70;;;;;;4345409;32;20382;-39
2021/08/20 03:42:35;;;;;;;;;;;38.40;23.50;;;;;;4358825;32;20026;-38
2021/08/20 03:45:01;;;;;;;;;;;38.80;23.90;;;;;;4358869;32;20379;-40
2021/08/20 03:47:27;;;;;;;;;;;39.20;23.00;;;;;;4359291;32;20391;-38
2021/08/20 03:49:53;;;;;;;;;;;39.50;22.80;;;;;;4359176;32;19973;-39
2021/08/20 03:52:20;;;;;;;;;;;39.80;22.60;;;;;;4359066;32;20432;-39
2021/08/20 03:54:47;;;;;;;;;;;40.10;22.20;;;;;;4359140;32;19969;-39
2021/08/20 03:57:13;;;;;;;;;;;40.30;21.80;;;;;;4358662;32;20064;-39
2021/08/20 03:59:39;;;;;;;;;;;40.60;21.50;;;;;;4358597;32;20035;-39
2021/08/20 04:02:05;;;;;;;;;;;40.90;21.20;;;;;;4359081;32;19954;-39
2021/08/20 04:04:32;;;;;;;;;;;41.10;21.00;;;;;;4358738;32;20395;-39
2021/08/20 04:06:58;;;;;;;;;;;41.40;20.80;;;;;;4358892;32;19969;-40
2021/08/20 04:09:24;;;;;;;;;;;41.70;20.90;;;;;;4358879;32;20025;-40
2021/08/20 04:11:50;;;;;;;;;;;42.00;20.90;;;;;;4358897;32;19954;-39
2021/08/20 04:14:17;;;;;;;;;;;42.20;20.70;;;;;;4359017;32;19988;-39
2021/08/20 04:16:43;;;;;;;;;;;42.40;20.70;;;;;;4358303;32;19990;-39
2021/08/20 04:19:09;;;;;;;;;;;42.60;20.50;;;;;;4358455;32;19981;-39
2021/08/20 04:21:35;;;;;;;;;;;42.80;20.50;;;;;;4358810;32;19973;-39
2021/08/20 04:24:01;;;;;;;;;;;42.90;20.30;;;;;;4358769;32;19969;-38
2021/08/20 04:26:27;;;;;;;;;;;43.20;20.20;;;;;;4358794;32;19969;-38
2021/08/20 04:28:53;;;;;;;;;;;43.30;20.10;;;;;;4358738;32;20033;-38
2021/08/20 04:31:20;;;;;;;;;;;43.50;20.00;;;;;;4357632;32;19985;-38
2021/08/20 04:33:46;;;;;;;;;;;43.80;19.90;;;;;;4358501;32;20004;-38
2021/08/20 04:36:12;;;;;;;;;;;44.10;19.80;;;;;;4358796;32;19984;-37
2021/08/20 04:38:40;;;;;;;;;;;44.50;19.80;;;;;;4358614;32;19969;-37
2021/08/20 04:41:09;;;;;;;;;;;45.00;19.80;;;;;;4358441;32;19977;-39
2021/08/20 04:43:35;;;;;;;;;;;45.30;19.20;;;;;;4358539;32;19965;-39
2021/08/20 04:46:02;;;;;;;;;;;45.70;18.70;;;;;;4358503;32;19958;-38
2021/08/20 04:48:28;;;;;;;;;;;46.10;18.60;;;;;;4358276;32;20039;-37
2021/08/20 04:50:56;;;;;;;;;;;46.40;18.20;;;;;;4358211;32;20408;-38
2021/08/20 04:53:27;;;;;;;;;;;46.80;18.00;;;;;;4358218;32;19984;-38
2021/08/20 04:55:53;;;;;;;;;;;47.10;17.90;;;;;;4358623;32;19965;-38
2021/08/20 04:58:19;;;;;;;;;;;47.50;17.90;;;;;;4358237;32;20039;-39
2021/08/20 05:00:46;;;;;;;;;;;47.70;17.80;;;;;;4357847;32;20390;-39
2021/08/20 05:03:13;;;;;;;;;;;47.90;17.70;;;;;;4328169;33;20081;-39
2021/08/20 05:05:42;;;;;;;;;;;48.10;17.90;;;;;;4340723;33;20443;-39
2021/08/20 05:08:08;;;;;;;;;;;48.20;17.90;;;;;;4316304;33;19966;-39
2021/08/20 05:10:34;;;;;;;;;;;48.10;17.90;;;;;;4328167;33;20371;-38
2021/08/20 05:13:01;;;;;;;;;;;48.10;18.40;;;;;;4340940;33;19962;-38
2021/08/20 05:15:27;;;;;;;;;;;48.20;17.90;;;;;;4340887;33;20472;-39
2021/08/20 05:17:54;;;;;;;;;;;48.20;17.90;;;;;;4340895;33;19965;-38
2021/08/20 05:20:20;;;;;;;;;;;48.20;17.80;;;;;;4329115;33;19969;-39
2021/08/20 05:22:49;;;;;;;;;;;48.20;17.80;;;;;;4340670;33;20102;-39
2021/08/20 05:25:15;;;;;;;;;;;48.20;17.80;;;;;;4340437;33;19963;-39
2021/08/20 05:27:41;;;;;;;;;;;48.30;17.70;;;;;;4340945;33;19995;-39
2021/08/20 05:30:09;;;;;;;;;;;48.40;17.90;;;;;;4340589;33;19981;-39
2021/08/20 05:32:35;;;;;;;;;;;48.60;17.90;;;;;;4340592;33;20410;-40
2021/08/20 05:35:02;;;;;;;;;;;48.60;17.80;;;;;;4355216;32;20441;-38
2021/08/20 05:37:29;;;;;;;;;;;48.70;17.90;;;;;;4344156;32;19966;-39
2021/08/20 05:39:55;;;;;;;;;;;48.80;17.80;;;;;;4358107;32;19960;-38
2021/08/20 05:42:21;;;;;;;;;;;49.00;17.90;;;;;;4358874;32;19961;-39
2021/08/20 05:44:47;;;;;;;;;;;49.20;17.90;;;;;;4360676;32;19973;-39
2021/08/20 05:47:13;;;;;;;;;;;49.30;17.90;;;;;;4360710;32;19958;-39
2021/08/20 05:49:40;;;;;;;;;;;49.50;18.00;;;;;;4360268;32;19966;-39
2021/08/20 05:52:06;;;;;;;;;;;49.60;17.90;;;;;;4360629;32;19985;-40
2021/08/20 05:54:33;;;;;;;;;;;49.70;17.70;;;;;;4346421;32;19954;-40
2021/08/20 05:56:59;;;;;;;;;;;50.00;17.80;;;;;;4360554;32;20387;-38
2021/08/20 05:59:26;;;;;;;;;;;50.10;17.80;;;;;;4360200;32;19965;-38
2021/08/20 06:01:52;;;;;;;;;;;50.20;17.80;;;;;;4346187;32;20039;-38
2021/08/20 06:04:18;;;;;;;;;;;50.20;17.90;;;;;;4360196;32;20479;-39
2021/08/20 06:06:44;;;;;;;;;;;50.20;17.90;;;;;;4360057;32;19960;-38
2021/08/20 06:09:11;;;;;;;;;;;50.20;17.80;;;;;;4360569;32;19969;-38
2021/08/20 06:11:37;;;;;;;;;;;50.30;17.80;;;;;;4360428;32;19962;-38
2021/08/20 06:14:03;;;;;;;;;;;50.40;17.80;;;;;;4359766;32;19965;-39
2021/08/20 06:16:29;;;;;;;;;;;50.60;17.80;;;;;;4360340;32;19969;-39
2021/08/20 06:18:56;;;;;;;;;;;50.70;17.70;;;;;;4360537;32;20410;-39
2021/08/20 06:21:22;;;;;;;;;;;50.90;17.70;;;;;;4327623;33;20029;-38
2021/08/20 06:23:48;;;;;;;;;;;51.00;17.60;;;;;;4328021;33;19974;-38
2021/08/20 06:26:15;;;;;;;;;;;51.20;17.50;;;;;;4327921;33;20426;-38
2021/08/20 06:28:44;;;;;;;;;;;51.30;17.30;;;;;;4328007;33;19985;-38
2021/08/20 06:31:10;;;;;;;;;;;51.40;17.30;;;;;;4331483;33;19966;-38
2021/08/20 06:33:39;;;;;;;;;;;51.60;17.40;;;;;;4342637;33;19986;-38
2021/08/20 06:36:05;;;;;;;;;;;51.60;17.20;;;;;;4342493;33;19965;-39
2021/08/20 06:38:32;;;;;;;;;;;51.70;17.10;;;;;;4330568;33;19954;-37
2021/08/20 06:40:58;;;;;;;;;;;51.80;17.20;;;;;;4342740;33;20120;-38
2021/08/20 06:43:24;;;;;;;;;;;51.90;17.00;;;;;;4342151;33;20419;-38
2021/08/20 06:45:50;;;;;;;;;;;52.00;16.80;;;;;;4342720;33;20055;-38
2021/08/20 06:48:17;;;;;;;;;;;52.30;16.90;;;;;;4342334;33;20061;-38
2021/08/20 06:50:43;;;;;;;;;;;52.30;16.70;;;;;;4342622;33;20037;-38
2021/08/20 06:53:10;;;;;;;;;;;52.40;16.70;;;;;;4342856;32;19954;-39
2021/08/20 06:55:36;;;;;;;;;;;52.40;16.70;;;;;;4359500;32;20054;-39
2021/08/20 06:58:02;;;;;;;;;;;52.40;16.60;;;;;;4359975;32;19946;-38
2021/08/20 07:00:29;;;;;;;;;;;52.50;16.70;;;;;;4345638;32;20013;-39
2021/08/20 07:02:55;;;;;;;;;;;52.50;16.70;;;;;;4359621;32;20511;-37
2021/08/20 07:05:21;;;;;;;;;;;52.60;17.30;;;;;;4345601;32;19978;-38
2021/08/20 07:07:47;;;;;;;;;;;52.70;16.80;;;;;;4359446;32;19958;-39
2021/08/20 07:10:15;;;;;;;;;;;52.70;16.90;;;;;;4359222;32;20412;-39
2021/08/20 07:12:42;;;;;;;;;;;52.70;16.80;;;;;;4359323;32;19969;-39
2021/08/20 07:15:09;;;;;;;;;;;52.70;16.80;;;;;;4359578;32;19993;-39
2021/08/20 07:17:36;;;;;;;;;;;52.80;16.80;;;;;;4359476;32;19960;-39
2021/08/20 07:20:02;;;;;;;;;;;52.80;16.90;;;;;;4360162;32;20442;-39
2021/08/20 07:22:28;;;;;;;;;;;52.80;16.80;;;;;;4358842;32;20378;-41
2021/08/20 07:24:55;;;;;;;;;;;52.80;16.80;;;;;;4359444;32;20524;-38
2021/08/20 07:27:21;;;;;;;;;;;52.80;16.80;;;;;;4359243;32;19968;-40
2021/08/20 07:29:47;;;;;;;;;;;52.80;16.70;;;;;;4359096;32;20035;-38
2021/08/20 07:32:14;;;;;;;;;;;52.90;16.60;;;;;;4359330;32;19954;-39
2021/08/20 07:34:40;;;;;;;;;;;52.90;16.60;;;;;;4359015;32;20048;-38
2021/08/20 07:37:06;;;;;;;;;;;52.90;16.40;;;;;;4359039;32;19962;-39
2021/08/20 07:39:33;;;;;;;;;;;53.00;16.50;;;;;;4359155;32;20035;-38
2021/08/20 07:41:59;;;;;;;;;;;53.00;16.50;;;;;;4358931;32;19969;-38
2021/08/20 07:44:25;;;;;;;;;;;53.00;16.40;;;;;;4358830;32;19977;-39
2021/08/20 07:46:52;;;;;;;;;;;53.10;17.00;;;;;;4358482;32;19976;-38
2021/08/20 07:49:18;;;;;;;;;;;53.30;16.50;;;;;;4345046;32;20045;-37
2021/08/20 07:51:44;;;;;;;;;;;53.30;16.50;;;;;;4358407;32;19981;-38
2021/08/20 07:54:10;;;;;;;;;;;53.40;16.60;;;;;;4359074;32;19969;-37
2021/08/20 07:56:40;;;;;;;;;;;53.50;16.50;;;;;;4358981;32;19969;-40
2021/08/20 07:59:06;;;;;;;;;;;53.60;16.50;;;;;;4359018;32;20387;-37
2021/08/20 08:01:32;;;;;;;;;;;53.60;16.40;;;;;;4358656;32;20342;-37
2021/08/20 08:03:59;;;;;;;;;;;53.60;16.40;;;;;;4358817;32;20045;-38
2021/08/20 08:06:25;;;;;;;;;;;53.70;16.50;;;;;;4358678;32;19973;-37
2021/08/20 08:08:51;;;;;;;;;;;53.70;16.40;;;;;;4359128;32;19988;-38
2021/08/20 08:11:17;;;;;;;;;;;53.70;16.50;;;;;;4358443;32;20459;-38
2021/08/20 08:13:44;;;;;;;;;;;53.70;16.50;;;;;;4358546;32;20351;-38
2021/08/20 08:16:10;;;;;;;;;;;53.70;16.50;;;;;;4358108;32;20049;-38
2021/08/20 08:18:36;;;;;;;;;;;53.70;16.50;;;;;;4357799;32;20410;-38
2021/08/20 08:21:02;;;;;;;;;;;53.70;16.50;;;;;;4358324;32;19962;-38
2021/08/20 08:23:28;;;;;;;;;;;53.60;16.40;;;;;;4358451;32;20008;-38
2021/08/20 08:25:55;;;;;;;;;;;53.50;16.20;;;;;;4358449;32;19958;-39
2021/08/20 08:28:21;;;;;;;;;;;53.50;16.10;;;;;;4358505;32;19968;-39
2021/08/20 08:30:49;;;;;;;;;;;53.40;16.00;;;;;;4358737;32;20188;-39
2021/08/20 08:33:15;;;;;;;;;;;53.50;16.00;;;;;;4358609;32;19961;-38
2021/08/20 08:35:42;;;;;;;;;;;53.60;16.10;;;;;;4358310;32;19980;-37
2021/08/20 08:38:12;;;;;;;;;;;53.60;16.00;;;;;;4358751;32;20048;-37
2021/08/20 08:40:46;;;;;;;;;;;53.70;16.00;;;;;;4358826;32;19973;-37
2021/08/20 08:43:12;;;;;;;;;;;53.80;16.10;;;;;;4358427;32;19968;-38
2021/08/20 08:45:39;;;;;;;;;;;53.90;16.10;;;;;;4358563;32;19969;-37
2021/08/20 08:48:08;;;;;;;;;;;54.00;16.20;;;;;;4356975;32;20476;-37
2021/08/20 08:50:35;;;;;;;;;;;54.00;16.80;;;;;;4358036;32;19945;-38
2021/08/20 08:53:01;;;;;;;;;;;54.10;16.30;;;;;;4358344;32;20457;-38
2021/08/20 08:55:28;;;;;;;;;;;54.10;16.50;;;;;;4358393;32;19969;-39
2021/08/20 08:57:54;;;;;;;;;;;54.00;16.40;;;;;;4358277;32;19987;-38
2021/08/20 09:00:34;;;;;;;;;;;54.10;16.40;;;;;;4356664;32;19978;-38
2021/08/20 09:03:00;;;;;;;;;;;54.20;16.30;;;;;;4357898;32;20456;-38
2021/08/20 09:05:26;;;;;;;;;;;54.30;16.20;;;;;;4358112;32;19956;-37
2021/08/20 09:07:54;;;;;;;;;;;54.30;16.20;;;;;;4369340;32;20055;-38
2021/08/20 09:10:25;;;;;;;;;;;54.30;16.20;;;;;;4358081;32;19958;-38
2021/08/20 09:13:00;;;;;;;;;;;54.40;16.30;;;;;;4358403;32;20057;-38
2021/08/20 09:15:31;;;;;;;;;;;54.30;16.30;;;;;;4358051;32;20131;-37
2021/08/20 09:18:01;;;;;;;;;;;54.00;16.20;;;;;;4371670;32;20417;-38
2021/08/20 09:20:32;;;;;;;;;;;53.90;16.30;;;;;;4376354;32;19961;-38
2021/08/20 09:23:00;;;;;;;;;;;53.90;16.30;;;;;;4375990;32;19989;-38
2021/08/20 09:25:33;;;;;;;;;;;53.80;16.30;;;;;;4375921;32;19964;-38
2021/08/20 09:28:26;;;;;;;;;;;53.80;16.30;;;;;;4375833;32;20058;-37
2021/08/20 09:30:55;;;;;;;;;;;53.80;16.20;;;;;;4371449;32;20490;-37
2021/08/20 09:33:35;;;;;;;;;;;53.90;16.20;;;;;;4360394;32;19977;-38
2021/08/20 09:36:06;;;;;;;;;;;54.00;16.20;;;;;;4360717;32;19949;-38
2021/08/20 09:38:36;;;;;;;;;;;54.00;16.20;;;;;;4360539;32;20007;-38
2021/08/20 09:41:08;;;;;;;;;;;53.90;16.10;;;;;;4360409;32;20937;-38
2021/08/20 09:43:36;;;;;;;;;;;53.90;16.10;;;;;;4360788;32;19962;-38
2021/08/20 09:46:08;;;;;;;;;;;53.90;16.10;;;;;;4346970;32;19997;-37
2021/08/20 09:48:53;;;;;;;;;;;53.70;16.10;;;;;;4360467;32;20022;-38
2021/08/20 09:51:38;;;;;;;;;;;53.40;16.00;;;;;;4360733;32;19969;-38
2021/08/20 09:54:06;;;;;;;;;;;53.10;16.10;;;;;;4360897;32;19973;-38
2021/08/20 09:56:33;;;;;;;;;;;53.00;16.20;;;;;;4360353;32;20080;-36
2021/08/20 09:59:04;;;;;;;;;;;52.80;16.20;;;;;;4360574;32;19946;-38
2021/08/20 10:01:31;;;;;;;;;;;52.60;16.10;;;;;;4360443;32;19974;-38
2021/08/20 10:03:58;;;;;;;;;;;52.40;16.10;;;;;;4360435;32;20498;-39
2021/08/20 10:06:32;;;;;;;;;;;52.30;16.20;;;;;;4360423;32;19954;-38
2021/08/20 10:09:00;;;;;;;;;;;52.30;16.10;;;;;;4360377;32;19966;-38
2021/08/20 10:11:26;;;;;;;;;;;52.50;16.00;;;;;;4346538;32;20440;-39
2021/08/20 10:13:52;;;;;;;;;;;52.80;16.00;;;;;;4346472;32;20042;-38
2021/08/20 10:16:19;;;;;;;;;;;53.00;16.60;;;;;;4346336;32;20072;-38
2021/08/20 10:18:45;;;;;;;;;;;53.20;16.00;;;;;;4346451;32;19965;-40
2021/08/20 10:21:11;;;;;;;;;;;53.20;16.00;;;;;;4358537;32;19954;-38
2021/08/20 10:23:37;;;;;;;;;;;53.30;16.00;;;;;;4359784;32;19990;-37
2021/08/20 10:26:06;;;;;;;;;;;53.30;16.00;;;;;;4360133;32;20391;-38
2021/08/20 10:28:32;;;;;;;;;;;53.20;15.90;;;;;;4359137;32;20392;-38
2021/08/20 10:30:59;;;;;;;;;;;53.30;15.80;;;;;;4359872;32;19965;-38
2021/08/20 10:33:32;;;;;;;;;;;53.40;15.70;;;;;;4358839;32;19957;-38
2021/08/20 10:36:00;;;;;;;;;;;53.50;15.70;;;;;;4360254;32;19966;-38
2021/08/20 10:38:39;;;;;;;;;;;53.60;15.60;;;;;;4359556;32;19974;-37
2021/08/20 10:41:14;;;;;;;;;;;53.80;15.60;;;;;;4360150;32;19988;-37
2021/08/20 10:44:20;;;;;;;;;;;54.00;15.60;;;;;;4359496;32;19950;-38
2021/08/20 10:46:46;;;;;;;;;;;54.20;15.60;;;;;;4359576;32;20005;-38
2021/08/20 10:49:12;;;;;;;;;;;54.30;15.60;;;;;;4359688;32;19968;-38
2021/08/20 10:51:51;;;;;;;;;;;54.30;15.60;;;;;;4359991;32;20034;-38
2021/08/20 10:54:42;;;;;;;;;;;54.30;15.60;;;;;;4359691;32;19966;-37
2021/08/20 10:57:12;;;;;;;;;;;54.30;15.40;;;;;;4359747;32;20001;-38
2021/08/20 10:59:38;;;;;;;;;;;54.40;15.50;;;;;;4358144;32;19950;-38
2021/08/20 11:02:21;;;;;;;;;;;54.30;15.40;;;;;;4359698;32;20373;-38
2021/08/20 11:05:06;;;;;;;;;;;54.30;15.50;;;;;;4359702;32;19978;-38
2021/08/20 11:07:39;;;;;;;;;;;54.10;15.40;;;;;;4359557;32;19964;-39
2021/08/20 11:10:08;;;;;;;;;;;54.00;15.40;;;;;;4359668;32;20155;-39
2021/08/20 11:12:38;;;;;;;;;;;53.90;15.40;;;;;;4359444;32;19970;-38
2021/08/20 11:15:33;;;;;;;;;;;53.90;15.40;;;;;;4342485;32;19985;-38
2021/08/20 11:18:06;;;;;;;;;;;53.90;15.50;;;;;;4342092;32;19994;-38
2021/08/20 11:20:37;;;;;;;;;;;53.90;15.50;;;;;;4312430;33;19966;-37
2021/08/20 11:23:10;;;;;;;;;;;53.90;15.80;;;;;;4312235;33;20033;-38
2021/08/20 11:25:46;;;;;;;;;;;53.60;15.90;;;;;;4312463;33;20410;-38
2021/08/20 11:28:25;;;;;;;;;;;53.30;16.00;;;;;;4312232;33;19967;-39
2021/08/20 11:31:03;;;;;;;;;;;53.00;16.00;;;;;;4314234;33;20392;-39
2021/08/20 11:33:30;;;;;;;;;;;52.80;16.10;;;;;;4327327;33;19981;-39
2021/08/20 11:36:00;;;;;;;;;;;52.60;16.10;;;;;;4314486;33;19977;-39
2021/08/20 11:38:41;;;;;;;;;;;52.50;16.10;;;;;;4327018;33;19951;-38
2021/08/20 11:41:13;;;;;;;;;;;52.50;16.10;;;;;;4326771;33;19986;-38
2021/08/20 11:43:53;;;;;;;;;;;52.50;16.10;;;;;;4326893;33;19994;-37
2021/08/20 11:46:20;;;;;;;;;;;52.30;16.20;;;;;;4326702;33;20057;-39
2021/08/20 11:48:50;;;;;;;;;;;52.10;16.30;;;;;;4327165;33;20013;-39
2021/08/20 11:51:25;;;;;;;;;;;52.00;16.60;;;;;;4338836;32;20492;-38
2021/08/20 11:53:51;;;;;;;;;;;51.90;16.60;;;;;;4358840;32;19960;-40
2021/08/20 11:56:18;;;;;;;;;;;51.50;16.60;;;;;;4344912;32;20050;-39
2021/08/20 11:58:44;;;;;;;;;;;51.30;16.70;;;;;;4358390;32;19989;-38
2021/08/20 12:01:38;;;;;;;;;;;51.00;16.80;;;;;;4358537;32;20170;-39
2021/08/20 12:04:06;;;;;;;;;;;50.70;16.90;;;;;;4356684;32;20391;-39
2021/08/20 12:06:33;;;;;;;;;;;50.40;16.90;;;;;;4358979;32;19954;-38
2021/08/20 12:09:12;;;;;;;;;;;50.20;16.90;;;;;;4358987;32;19958;-39
2021/08/20 12:11:42;;;;;;;;;;;50.00;16.80;;;;;;4358671;32;20001;-38
2021/08/20 12:14:19;;;;;;;;;;;49.80;16.50;;;;;;4359099;32;20378;-38
2021/08/20 12:16:47;;;;;;;;;;;49.70;16.50;;;;;;4358813;32;19958;-38
2021/08/20 12:19:30;;;;;;;;;;;49.60;16.40;;;;;;4358867;32;19953;-38
2021/08/20 12:22:07;;;;;;;;;;;49.50;16.30;;;;;;4358614;32;19976;-38
2021/08/20 12:24:41;;;;;;;;;;;49.30;16.30;;;;;;4358744;32;19958;-37
2021/08/20 12:27:16;;;;;;;;;;;49.20;16.30;;;;;;4358553;32;19964;-38
2021/08/20 12:29:43;;;;;;;;;;;49.00;16.10;;;;;;4358547;32;19985;-39
2021/08/20 12:32:19;;;;;;;;;;;48.90;16.20;;;;;;4368406;32;19973;-37
2021/08/20 12:34:45;;;;;;;;;;;48.60;16.10;;;;;;4359523;32;19974;-38
2021/08/20 12:37:11;;;;;;;;;;;48.40;16.20;;;;;;4346833;32;19969;-38
2021/08/20 12:39:40;;;;;;;;;;;48.30;16.20;;;;;;4359411;32;19961;-38
2021/08/20 12:42:23;;;;;;;;;;;48.20;16.30;;;;;;4373040;32;19976;-38
2021/08/20 12:45:12;;;;;;;;;;;48.20;16.30;;;;;;4373398;32;19953;-39
2021/08/20 12:47:42;;;;;;;;;;;48.20;16.30;;;;;;4372998;32;20369;-45
2021/08/20 12:50:15;;;;;;;;;;;48.30;16.30;;;;;;4373609;32;19964;-38
2021/08/20 12:52:42;;;;;;;;;;;48.40;16.20;;;;;;4372094;32;19960;-38
2021/08/20 12:55:25;;;;;;;;;;;48.50;16.30;;;;;;4373072;32;19988;-38
2021/08/20 12:57:52;;;;;;;;;;;48.60;16.20;;;;;;4373348;32;20394;-39
2021/08/20 13:00:18;;;;;;;;;;;48.70;16.20;;;;;;4373216;32;19991;-38
2021/08/20 13:02:44;;;;;;;;;;;48.70;16.20;;;;;;4373089;32;19985;-37
2021/08/20 13:05:11;;;;;;;;;;;48.70;16.20;;;;;;4359091;32;19973;-38
2021/08/20 13:07:37;;;;;;;;;;;48.60;16.20;;;;;;4372787;32;20028;-39
2021/08/20 13:10:04;;;;;;;;;;;48.40;16.20;;;;;;4358966;32;20522;-39
2021/08/20 13:12:30;;;;;;;;;;;48.30;16.20;;;;;;4374022;32;20410;-38
2021/08/20 13:14:56;;;;;;;;;;;48.20;16.20;;;;;;4373654;32;20408;-40
2021/08/20 13:17:22;;;;;;;;;;;48.10;16.20;;;;;;4373937;32;19961;-39
2021/08/20 13:19:50;;;;;;;;;;;48.10;16.30;;;;;;4373471;32;19981;-39
2021/08/20 13:22:16;;;;;;;;;;;48.00;16.30;;;;;;4373198;32;19984;-39
2021/08/20 13:24:43;;;;;;;;;;;48.00;16.40;;;;;;4373149;32;19949;-40
2021/08/20 13:27:09;;;;;;;;;;;48.10;16.40;;;;;;4372929;32;19964;-38
2021/08/20 13:29:36;;;;;;;;;;;48.10;16.30;;;;;;4373088;32;19960;-39
2021/08/20 13:32:03;;;;;;;;;;;48.10;16.30;;;;;;4343946;32;19954;-39
2021/08/20 13:34:29;;;;;;;;;;;48.10;16.40;;;;;;4357982;32;19988;-39
2021/08/20 13:36:55;;;;;;;;;;;48.00;16.40;;;;;;4358186;32;19964;-38
2021/08/20 13:39:21;;;;;;;;;;;47.90;16.40;;;;;;4358041;32;20044;-39
2021/08/20 13:41:48;;;;;;;;;;;47.70;16.40;;;;;;4343978;32;20057;-38
2021/08/20 13:44:14;;;;;;;;;;;47.50;16.50;;;;;;4343936;32;19957;-38
2021/08/20 13:46:40;;;;;;;;;;;47.40;16.50;;;;;;4357762;32;20388;-39
2021/08/20 13:49:07;;;;;;;;;;;47.30;16.60;;;;;;4357519;32;20026;-40
2021/08/20 13:51:33;;;;;;;;;;;47.30;16.60;;;;;;4357799;32;19961;-40
2021/08/20 13:53:59;;;;;;;;;;;47.20;16.60;;;;;;4357899;32;19972;-39
2021/08/20 13:56:26;;;;;;;;;;;47.20;16.60;;;;;;4357739;32;19968;-38
2021/08/20 13:58:52;;;;;;;;;;;47.20;16.70;;;;;;4357942;32;19965;-39
2021/08/20 14:01:19;;;;;;;;;;;47.20;16.70;;;;;;4343487;32;19965;-39
2021/08/20 14:03:45;;;;;;;;;;;47.20;16.70;;;;;;4359332;32;20382;-39
2021/08/20 14:06:11;;;;;;;;;;;47.30;16.80;;;;;;4359960;32;19954;-38
2021/08/20 14:08:38;;;;;;;;;;;47.40;16.80;;;;;;4360017;32;20042;-39
2021/08/20 14:11:07;;;;;;;;;;;47.40;16.80;;;;;;4346565;32;19981;-40
2021/08/20 14:13:33;;;;;;;;;;;47.50;16.80;;;;;;4346556;32;20053;-40
2021/08/20 14:16:00;;;;;;;;;;;47.50;16.80;;;;;;4346347;32;20063;-39
2021/08/20 14:18:26;;;;;;;;;;;47.50;16.90;;;;;;4360424;32;19961;-39
2021/08/20 14:20:52;;;;;;;;;;;47.50;16.90;;;;;;4360195;32;19985;-39